createdAt,value
2017-08-28T00:00:23.168Z,0
2017-08-28T00:01:32.351Z,0
2017-08-28T00:02:41.196Z,0
2017-08-28T00:03:50.040Z,0
2017-08-28T00:04:58.984Z,0
2017-08-28T00:06:07.825Z,0
2017-08-28T00:07:16.672Z,0
2017-08-28T00:08:25.520Z,0
2017-08-28T00:09:34.694Z,0
2017-08-28T00:10:43.686Z,0
2017-08-28T00:11:52.532Z,0
2017-08-28T00:13:01.377Z,0
2017-08-28T00:14:10.223Z,0
2017-08-28T00:15:19.068Z,0
2017-08-28T00:16:28.444Z,0
2017-08-28T00:17:37.289Z,0
2017-08-28T00:18:46.131Z,0
2017-08-28T00:19:54.975Z,0
2017-08-28T00:21:03.820Z,0
2017-08-28T00:22:12.767Z,0
2017-08-28T00:23:21.612Z,0
2017-08-28T00:24:30.455Z,0
2017-08-28T00:25:39.307Z,0
2017-08-28T00:26:48.155Z,0
2017-08-28T00:27:57.097Z,0
2017-08-28T00:29:05.940Z,0
2017-08-28T00:30:14.784Z,0
2017-08-28T00:31:23.629Z,0
2017-08-28T00:32:32.474Z,0
2017-08-28T00:33:41.370Z,0
2017-08-28T00:34:50.216Z,0
2017-08-28T00:35:59.060Z,0
2017-08-28T00:37:07.906Z,0
2017-08-28T00:38:16.749Z,0
2017-08-28T00:39:25.744Z,0
2017-08-28T00:40:34.587Z,0
2017-08-28T00:41:43.431Z,0
2017-08-28T00:42:52.277Z,0
2017-08-28T00:44:01.121Z,0
2017-08-28T00:45:09.969Z,0
2017-08-28T00:46:18.814Z,0
2017-08-28T00:47:27.989Z,0
2017-08-28T00:48:37.175Z,0
2017-08-28T00:49:46.012Z,0
2017-08-28T00:50:54.856Z,0
2017-08-28T00:52:03.703Z,0
2017-08-28T00:53:12.881Z,0
2017-08-28T00:54:21.727Z,0
2017-08-28T00:55:30.572Z,0
2017-08-28T00:56:39.716Z,0
2017-08-28T00:57:48.559Z,0
2017-08-28T00:58:57.402Z,0
2017-08-28T01:00:06.271Z,0
2017-08-28T01:01:15.115Z,0
2017-08-28T01:02:24.363Z,0
2017-08-28T01:03:33.206Z,0
2017-08-28T01:04:42.053Z,0
2017-08-28T01:05:50.899Z,0
2017-08-28T01:06:59.740Z,0
2017-08-28T01:08:08.687Z,0
2017-08-28T01:09:17.530Z,0
2017-08-28T01:10:26.706Z,0
2017-08-28T01:11:35.551Z,0
2017-08-28T01:12:44.396Z,0
2017-08-28T01:13:53.725Z,0
2017-08-28T01:15:02.570Z,0
2017-08-28T01:16:11.412Z,0
2017-08-28T01:17:20.586Z,0
2017-08-28T01:18:29.435Z,0
2017-08-28T01:19:38.430Z,0
2017-08-28T01:20:47.276Z,0
2017-08-28T01:21:56.453Z,0
2017-08-28T01:23:05.298Z,0
2017-08-28T01:24:14.143Z,0
2017-08-28T01:25:23.136Z,0
2017-08-28T01:26:31.981Z,0
2017-08-28T01:27:40.825Z,0
2017-08-28T01:28:49.666Z,0
2017-08-28T01:29:58.512Z,0
2017-08-28T01:31:07.609Z,0
2017-08-28T01:32:16.456Z,0
2017-08-28T01:33:25.302Z,0
2017-08-28T01:34:34.145Z,0
2017-08-28T01:35:42.990Z,0
2017-08-28T01:36:51.986Z,0
2017-08-28T01:38:00.826Z,0
2017-08-28T01:39:09.673Z,0
2017-08-28T01:40:18.516Z,0
2017-08-28T01:41:27.360Z,0
2017-08-28T01:42:36.606Z,0
2017-08-28T01:43:45.453Z,0
2017-08-28T01:44:54.298Z,0
2017-08-28T01:46:03.144Z,0
2017-08-28T01:47:11.986Z,0
2017-08-28T01:48:20.980Z,0
2017-08-28T01:49:29.823Z,0
2017-08-28T01:50:38.669Z,0
2017-08-28T01:51:47.511Z,0
2017-08-28T01:52:56.355Z,0
2017-08-28T01:54:05.348Z,0
2017-08-28T01:55:14.195Z,0
2017-08-28T01:56:23.041Z,0
2017-08-28T01:57:31.884Z,0
2017-08-28T01:58:40.730Z,0
2017-08-28T01:59:49.726Z,0
2017-08-28T02:00:58.574Z,0
2017-08-28T02:02:07.418Z,0
2017-08-28T02:03:16.263Z,0
2017-08-28T02:04:25.107Z,0
2017-08-28T02:05:34.001Z,0
2017-08-28T02:06:42.844Z,0
2017-08-28T02:07:52.019Z,0
2017-08-28T02:09:00.865Z,0
2017-08-28T02:10:09.709Z,0
2017-08-28T02:11:18.558Z,0
2017-08-28T02:12:27.398Z,0
2017-08-28T02:13:36.244Z,0
2017-08-28T02:14:45.092Z,0
2017-08-28T02:15:53.937Z,0
2017-08-28T02:17:03.030Z,0
2017-08-28T02:18:11.879Z,0
2017-08-28T02:19:20.725Z,0
2017-08-28T02:20:29.565Z,0
2017-08-28T02:21:38.412Z,0
2017-08-28T02:22:47.306Z,0
2017-08-28T02:23:56.400Z,0
2017-08-28T02:25:05.245Z,0
2017-08-28T02:26:14.089Z,0
2017-08-28T02:27:22.932Z,0
2017-08-28T02:28:31.926Z,0
2017-08-28T02:29:40.775Z,0
2017-08-28T02:30:49.621Z,0
2017-08-28T02:31:58.466Z,0
2017-08-28T02:33:07.313Z,0
2017-08-28T02:34:16.308Z,0
2017-08-28T02:35:25.156Z,0
2017-08-28T02:36:33.998Z,0
2017-08-28T02:37:42.842Z,0
2017-08-28T02:38:51.692Z,0
2017-08-28T02:40:00.687Z,0
2017-08-28T02:41:09.533Z,0
2017-08-28T02:42:18.376Z,0
2017-08-28T02:43:27.219Z,0
2017-08-28T02:44:36.063Z,0
2017-08-28T02:45:45.054Z,0
2017-08-28T02:46:53.899Z,0
2017-08-28T02:48:02.742Z,0
2017-08-28T02:49:11.582Z,0
2017-08-28T02:50:20.764Z,0
2017-08-28T02:51:30.007Z,0
2017-08-28T02:52:39.533Z,0
2017-08-28T02:53:48.372Z,0
2017-08-28T02:54:57.220Z,0
2017-08-28T02:56:06.398Z,0
2017-08-28T02:57:15.545Z,0
2017-08-28T02:58:24.390Z,0
2017-08-28T02:59:33.239Z,0
2017-08-28T03:00:42.084Z,0
2017-08-28T03:01:50.928Z,0
2017-08-28T03:02:59.919Z,0
2017-08-28T03:04:08.766Z,0
2017-08-28T03:05:17.608Z,0
2017-08-28T03:06:26.453Z,0
2017-08-28T03:07:35.299Z,0
2017-08-28T03:08:44.195Z,0
2017-08-28T03:09:53.039Z,0
2017-08-28T03:11:01.880Z,0
2017-08-28T03:12:10.724Z,0
2017-08-28T03:13:19.568Z,0
2017-08-28T03:14:28.664Z,0
2017-08-28T03:15:37.510Z,0
2017-08-28T03:16:46.354Z,0
2017-08-28T03:17:55.200Z,0
2017-08-28T03:19:04.377Z,0
2017-08-28T03:20:13.372Z,0
2017-08-28T03:21:22.216Z,0
2017-08-28T03:22:31.060Z,0
2017-08-28T03:23:39.904Z,0
2017-08-28T03:24:48.751Z,0
2017-08-28T03:25:57.643Z,0
2017-08-28T03:27:06.489Z,0
2017-08-28T03:28:15.332Z,0
2017-08-28T03:29:24.175Z,0
2017-08-28T03:30:33.023Z,0
2017-08-28T03:31:41.894Z,0
2017-08-28T03:32:50.712Z,0
2017-08-28T03:33:59.557Z,0
2017-08-28T03:35:08.399Z,0
2017-08-28T03:36:17.244Z,0
2017-08-28T03:37:26.088Z,0
2017-08-28T03:38:34.931Z,0
2017-08-28T03:39:43.776Z,0
2017-08-28T03:40:52.619Z,0
2017-08-28T03:42:01.470Z,0
2017-08-28T03:43:10.406Z,0
2017-08-28T03:44:19.251Z,0
2017-08-28T03:45:28.097Z,0
2017-08-28T03:46:36.943Z,0
2017-08-28T03:47:45.786Z,0
2017-08-28T03:48:54.779Z,0
2017-08-28T03:50:03.621Z,0
2017-08-28T03:51:12.463Z,0
2017-08-28T03:52:21.306Z,0
2017-08-28T03:53:30.151Z,0
2017-08-28T03:54:39.142Z,0
2017-08-28T03:55:47.987Z,0
2017-08-28T03:56:56.832Z,0
2017-08-28T03:58:05.675Z,0
2017-08-28T03:59:14.521Z,0
2017-08-28T04:00:23.413Z,4
2017-08-28T04:01:32.259Z,4
2017-08-28T04:02:41.101Z,0
2017-08-28T04:03:49.943Z,4
2017-08-28T04:04:58.787Z,4
2017-08-28T04:06:07.680Z,4
2017-08-28T04:07:16.524Z,4
2017-08-28T04:08:25.368Z,4
2017-08-28T04:09:34.213Z,8
2017-08-28T04:10:43.060Z,8
2017-08-28T04:11:52.056Z,8
2017-08-28T04:13:00.898Z,12
2017-08-28T04:14:09.743Z,16
2017-08-28T04:15:18.586Z,16
2017-08-28T04:16:28.103Z,16
2017-08-28T04:17:37.047Z,20
2017-08-28T04:18:45.891Z,28
2017-08-28T04:19:54.737Z,28
2017-08-28T04:21:03.583Z,32
2017-08-28T04:22:12.427Z,40
2017-08-28T04:23:21.339Z,48
2017-08-28T04:24:30.166Z,52
2017-08-28T04:25:39.010Z,56
2017-08-28T04:26:47.853Z,64
2017-08-28T04:27:56.696Z,68
2017-08-28T04:29:05.541Z,76
2017-08-28T04:30:14.385Z,84
2017-08-28T04:31:23.231Z,92
2017-08-28T04:32:32.078Z,96
2017-08-28T04:33:40.923Z,104
2017-08-28T04:34:49.916Z,116
2017-08-28T04:35:58.759Z,124
2017-08-28T04:37:07.603Z,140
2017-08-28T04:38:16.445Z,152
2017-08-28T04:39:25.288Z,172
2017-08-28T04:40:34.434Z,188
2017-08-28T04:41:43.280Z,204
2017-08-28T04:42:52.127Z,220
2017-08-28T04:44:00.969Z,236
2017-08-28T04:45:09.813Z,252
2017-08-28T04:46:18.806Z,272
2017-08-28T04:47:27.652Z,288
2017-08-28T04:48:36.494Z,304
2017-08-28T04:49:45.340Z,320
2017-08-28T04:50:54.520Z,332
2017-08-28T04:52:03.516Z,340
2017-08-28T04:53:12.361Z,348
2017-08-28T04:54:21.205Z,356
2017-08-28T04:55:30.051Z,364
2017-08-28T04:56:38.897Z,376
2017-08-28T04:57:47.890Z,392
2017-08-28T04:58:57.067Z,408
2017-08-28T05:00:05.963Z,416
2017-08-28T05:01:14.812Z,432
2017-08-28T05:02:23.656Z,440
2017-08-28T05:03:32.802Z,456
2017-08-28T05:04:41.647Z,468
2017-08-28T05:05:50.493Z,484
2017-08-28T05:06:59.334Z,516
2017-08-28T05:08:08.178Z,548
2017-08-28T05:09:17.172Z,576
2017-08-28T05:10:26.015Z,612
2017-08-28T05:11:34.862Z,648
2017-08-28T05:12:43.707Z,664
2017-08-28T05:13:52.552Z,684
2017-08-28T05:15:01.550Z,704
2017-08-28T05:16:10.392Z,724
2017-08-28T05:17:19.237Z,732
2017-08-28T05:18:28.082Z,736
2017-08-28T05:19:36.927Z,780
2017-08-28T05:20:45.923Z,804
2017-08-28T05:21:54.767Z,812
2017-08-28T05:23:03.613Z,808
2017-08-28T05:24:12.459Z,852
2017-08-28T05:25:21.306Z,872
2017-08-28T05:26:30.409Z,864
2017-08-28T05:27:39.257Z,912
2017-08-28T05:28:48.105Z,952
2017-08-28T05:29:56.953Z,984
2017-08-28T05:31:05.797Z,992
2017-08-28T05:32:14.693Z,1012
2017-08-28T05:33:23.541Z,1016
2017-08-28T05:34:32.389Z,1032
2017-08-28T05:35:41.237Z,1080
2017-08-28T05:36:50.084Z,1068
2017-08-28T05:37:59.076Z,1104
2017-08-28T05:39:07.926Z,1148
2017-08-28T05:40:16.771Z,1176
2017-08-28T05:41:25.614Z,1232
2017-08-28T05:42:34.467Z,1236
2017-08-28T05:43:43.805Z,1256
2017-08-28T05:44:52.649Z,1292
2017-08-28T05:46:01.492Z,1276
2017-08-28T05:47:10.362Z,1312
2017-08-28T05:48:19.188Z,1316
2017-08-28T05:49:28.132Z,1336
2017-08-28T05:50:36.977Z,1316
2017-08-28T05:51:45.825Z,1304
2017-08-28T05:52:54.670Z,1288
2017-08-28T05:54:03.512Z,1312
2017-08-28T05:55:12.607Z,1368
2017-08-28T05:56:21.452Z,1448
2017-08-28T05:57:30.299Z,1476
2017-08-28T05:58:39.144Z,1484
2017-08-28T05:59:47.988Z,1472
2017-08-28T06:00:56.834Z,1512
2017-08-28T06:02:05.681Z,1536
2017-08-28T06:03:14.528Z,1624
2017-08-28T06:04:23.375Z,1660
2017-08-28T06:05:32.220Z,1692
2017-08-28T06:06:41.549Z,1672
2017-08-28T06:07:50.396Z,1664
2017-08-28T06:08:59.241Z,1580
2017-08-28T06:10:08.090Z,1520
2017-08-28T06:11:16.937Z,1524
2017-08-28T06:12:25.982Z,1452
2017-08-28T06:13:34.828Z,1404
2017-08-28T06:14:43.676Z,1384
2017-08-28T06:15:52.519Z,1304
2017-08-28T06:17:01.366Z,1248
2017-08-28T06:18:10.362Z,1208
2017-08-28T06:19:19.209Z,1268
2017-08-28T06:20:28.384Z,1316
2017-08-28T06:21:37.232Z,1280
2017-08-28T06:22:46.078Z,1244
2017-08-28T06:23:55.073Z,1212
2017-08-28T06:25:04.255Z,1180
2017-08-28T06:26:13.101Z,1140
2017-08-28T06:27:21.944Z,1136
2017-08-28T06:28:30.791Z,1168
2017-08-28T06:29:40.034Z,1176
2017-08-28T06:30:48.883Z,1192
2017-08-28T06:31:57.728Z,1196
2017-08-28T06:33:06.574Z,1176
2017-08-28T06:34:15.422Z,1188
2017-08-28T06:35:24.369Z,1188
2017-08-28T06:36:33.215Z,1196
2017-08-28T06:37:42.070Z,1216
2017-08-28T06:38:50.913Z,1240
2017-08-28T06:39:59.760Z,1252
2017-08-28T06:41:08.858Z,1256
2017-08-28T06:42:17.706Z,1260
2017-08-28T06:43:26.553Z,1260
2017-08-28T06:44:35.397Z,1260
2017-08-28T06:45:44.242Z,1268
2017-08-28T06:46:53.089Z,1264
2017-08-28T06:48:01.938Z,1276
2017-08-28T06:49:11.115Z,1284
2017-08-28T06:50:19.963Z,1292
2017-08-28T06:51:28.808Z,1296
2017-08-28T06:52:37.774Z,1300
2017-08-28T06:53:46.603Z,1304
2017-08-28T06:54:55.447Z,1304
2017-08-28T06:56:04.295Z,1320
2017-08-28T06:57:13.141Z,1332
2017-08-28T06:58:22.138Z,1340
2017-08-28T06:59:30.985Z,1340
2017-08-28T07:00:40.060Z,1372
2017-08-28T07:01:48.919Z,1388
2017-08-28T07:02:57.772Z,1416
2017-08-28T07:04:06.617Z,1444
2017-08-28T07:05:15.463Z,1464
2017-08-28T07:06:24.310Z,1468
2017-08-28T07:07:33.157Z,1464
2017-08-28T07:08:42.004Z,1452
2017-08-28T07:09:50.851Z,1444
2017-08-28T07:11:00.031Z,1444
2017-08-28T07:12:08.876Z,1444
2017-08-28T07:13:17.724Z,1448
2017-08-28T07:14:26.573Z,1444
2017-08-28T07:15:35.422Z,1440
2017-08-28T07:16:44.269Z,1432
2017-08-28T07:17:53.117Z,1428
2017-08-28T07:19:01.963Z,1432
2017-08-28T07:20:10.809Z,1436
2017-08-28T07:21:19.656Z,1448
2017-08-28T07:22:28.503Z,1448
2017-08-28T07:23:37.681Z,1448
2017-08-28T07:24:46.528Z,1444
2017-08-28T07:25:55.379Z,1432
2017-08-28T07:27:04.225Z,1420
2017-08-28T07:28:13.071Z,1424
2017-08-28T07:29:21.969Z,1416
2017-08-28T07:30:30.818Z,1440
2017-08-28T07:31:39.665Z,1428
2017-08-28T07:32:48.509Z,1448
2017-08-28T07:33:57.355Z,1476
2017-08-28T07:35:06.352Z,1512
2017-08-28T07:36:15.206Z,1496
2017-08-28T07:37:24.384Z,1528
2017-08-28T07:38:33.233Z,1524
2017-08-28T07:39:42.079Z,1540
2017-08-28T07:40:51.078Z,1548
2017-08-28T07:41:59.923Z,1564
2017-08-28T07:43:08.771Z,1576
2017-08-28T07:44:17.619Z,1588
2017-08-28T07:45:26.467Z,1608
2017-08-28T07:46:35.315Z,1628
2017-08-28T07:47:44.158Z,1668
2017-08-28T07:48:53.005Z,1724
2017-08-28T07:50:01.852Z,1792
2017-08-28T07:51:10.698Z,1856
2017-08-28T07:52:19.695Z,1848
2017-08-28T07:53:28.541Z,1784
2017-08-28T07:54:37.392Z,1756
2017-08-28T07:55:46.241Z,1764
2017-08-28T07:56:55.087Z,1788
2017-08-28T07:58:04.088Z,1820
2017-08-28T07:59:12.933Z,1856
2017-08-28T08:00:21.780Z,1856
2017-08-28T08:01:30.629Z,1868
2017-08-28T08:02:39.479Z,1960
2017-08-28T08:03:48.376Z,2136
2017-08-28T08:04:57.557Z,2312
2017-08-28T08:06:06.407Z,2388
2017-08-28T08:07:15.247Z,2424
2017-08-28T08:08:24.428Z,2540
2017-08-28T08:09:33.276Z,2760
2017-08-28T08:10:42.123Z,3004
2017-08-28T08:11:50.966Z,3128
2017-08-28T08:12:59.816Z,3040
2017-08-28T08:14:08.668Z,2936
2017-08-28T08:15:17.568Z,2820
2017-08-28T08:16:26.416Z,2772
2017-08-28T08:17:35.599Z,2684
2017-08-28T08:18:44.444Z,2556
2017-08-28T08:19:53.292Z,2344
2017-08-28T08:21:02.438Z,2164
2017-08-28T08:22:11.284Z,2184
2017-08-28T08:23:20.135Z,2284
2017-08-28T08:24:28.981Z,2376
2017-08-28T08:25:37.832Z,2588
2017-08-28T08:26:47.277Z,2768
2017-08-28T08:27:56.125Z,2884
2017-08-28T08:29:04.974Z,2780
2017-08-28T08:30:13.819Z,2644
2017-08-28T08:31:22.668Z,2532
2017-08-28T08:32:31.617Z,2416
2017-08-28T08:33:40.465Z,2264
2017-08-28T08:34:49.319Z,2236
2017-08-28T08:35:58.168Z,2416
2017-08-28T08:37:07.352Z,2736
2017-08-28T08:38:16.260Z,2936
2017-08-28T08:39:25.109Z,2896
2017-08-28T08:40:33.956Z,2904
2017-08-28T08:41:42.807Z,3052
2017-08-28T08:42:51.657Z,3260
2017-08-28T08:44:00.602Z,3236
2017-08-28T08:45:09.451Z,3136
2017-08-28T08:46:18.299Z,3000
2017-08-28T08:47:27.147Z,2788
2017-08-28T08:48:35.997Z,2584
2017-08-28T08:49:44.896Z,2624
2017-08-28T08:50:53.745Z,2688
2017-08-28T08:52:02.596Z,2716
2017-08-28T08:53:11.445Z,2844
2017-08-28T08:54:20.296Z,2912
2017-08-28T08:55:29.345Z,2880
2017-08-28T08:56:38.192Z,2872
2017-08-28T08:57:47.041Z,2816
2017-08-28T08:58:55.894Z,2904
2017-08-28T09:00:04.742Z,2736
2017-08-28T09:01:13.742Z,2548
2017-08-28T09:02:22.591Z,2416
2017-08-28T09:03:31.444Z,2408
2017-08-28T09:04:40.294Z,2432
2017-08-28T09:05:49.145Z,2452
2017-08-28T09:06:58.145Z,2588
2017-08-28T09:08:06.996Z,2700
2017-08-28T09:09:16.179Z,2748
2017-08-28T09:10:25.026Z,2780
2017-08-28T09:11:33.874Z,2764
2017-08-28T09:12:42.872Z,2804
2017-08-28T09:13:51.722Z,2916
2017-08-28T09:15:00.578Z,2884
2017-08-28T09:16:09.426Z,2640
2017-08-28T09:17:18.277Z,2440
2017-08-28T09:18:27.429Z,2332
2017-08-28T09:19:36.276Z,2212
2017-08-28T09:20:45.123Z,2156
2017-08-28T09:21:53.972Z,2124
2017-08-28T09:23:02.822Z,2160
2017-08-28T09:24:11.822Z,2152
2017-08-28T09:25:20.673Z,2148
2017-08-28T09:26:29.524Z,2128
2017-08-28T09:27:38.374Z,2188
2017-08-28T09:28:47.226Z,2220
2017-08-28T09:29:56.127Z,2200
2017-08-28T09:31:04.978Z,2164
2017-08-28T09:32:13.828Z,2128
2017-08-28T09:33:22.677Z,2136
2017-08-28T09:34:31.528Z,2168
2017-08-28T09:35:40.813Z,2180
2017-08-28T09:36:49.662Z,2196
2017-08-28T09:37:58.513Z,2216
2017-08-28T09:39:07.362Z,2220
2017-08-28T09:40:16.210Z,2236
2017-08-28T09:41:25.108Z,2260
2017-08-28T09:42:33.958Z,2280
2017-08-28T09:43:43.138Z,2276
2017-08-28T09:44:51.984Z,2268
2017-08-28T09:46:00.832Z,2280
2017-08-28T09:47:10.212Z,2308
2017-08-28T09:48:19.058Z,2324
2017-08-28T09:49:27.908Z,2316
2017-08-28T09:50:36.758Z,2356
2017-08-28T09:51:45.611Z,2408
2017-08-28T09:52:54.613Z,2436
2017-08-28T09:54:03.462Z,2460
2017-08-28T09:55:12.313Z,2484
2017-08-28T09:56:21.164Z,2504
2017-08-28T09:57:30.016Z,2524
2017-08-28T09:58:38.863Z,2536
2017-08-28T09:59:47.716Z,2544
2017-08-28T10:00:56.566Z,2540
2017-08-28T10:02:05.418Z,2520
2017-08-28T10:03:14.266Z,2508
2017-08-28T10:04:23.165Z,2556
2017-08-28T10:05:32.018Z,2612
2017-08-28T10:06:41.209Z,2684
2017-08-28T10:07:50.059Z,2664
2017-08-28T10:08:58.909Z,2704
2017-08-28T10:10:07.910Z,2748
2017-08-28T10:11:16.759Z,2624
2017-08-28T10:12:25.610Z,2544
2017-08-28T10:13:34.460Z,2556
2017-08-28T10:14:43.313Z,2568
2017-08-28T10:15:52.316Z,2620
2017-08-28T10:17:01.168Z,2644
2017-08-28T10:18:10.018Z,2688
2017-08-28T10:19:18.938Z,2704
2017-08-28T10:20:27.789Z,2728
2017-08-28T10:21:36.691Z,2756
2017-08-28T10:22:45.544Z,2768
2017-08-28T10:23:54.404Z,2788
2017-08-28T10:25:03.267Z,2832
2017-08-28T10:26:12.454Z,2872
2017-08-28T10:27:21.454Z,2868
2017-08-28T10:28:30.306Z,2864
2017-08-28T10:29:39.155Z,2916
2017-08-28T10:30:48.004Z,2828
2017-08-28T10:31:56.853Z,2948
2017-08-28T10:33:05.903Z,2996
2017-08-28T10:34:14.753Z,3112
2017-08-28T10:35:23.609Z,3136
2017-08-28T10:36:32.459Z,3116
2017-08-28T10:37:41.310Z,3112
2017-08-28T10:38:50.310Z,3092
2017-08-28T10:39:59.165Z,3120
2017-08-28T10:41:08.014Z,3208
2017-08-28T10:42:16.865Z,3268
2017-08-28T10:43:25.712Z,3332
2017-08-28T10:44:34.713Z,3336
2017-08-28T10:45:43.562Z,3324
2017-08-28T10:46:52.415Z,3320
2017-08-28T10:48:01.263Z,3288
2017-08-28T10:49:10.113Z,3292
2017-08-28T10:50:19.114Z,3324
2017-08-28T10:51:27.963Z,3428
2017-08-28T10:52:36.812Z,3564
2017-08-28T10:53:45.677Z,3580
2017-08-28T10:54:54.527Z,3536
2017-08-28T10:56:03.529Z,3492
2017-08-28T10:57:12.381Z,3496
2017-08-28T10:58:21.247Z,3560
2017-08-28T10:59:30.099Z,3696
2017-08-28T11:00:38.972Z,3828
2017-08-28T11:01:47.922Z,3972
2017-08-28T11:02:56.773Z,4552
2017-08-28T11:04:05.624Z,5196
2017-08-28T11:05:14.474Z,5288
2017-08-28T11:06:23.333Z,5164
2017-08-28T11:07:32.236Z,4936
2017-08-28T11:08:41.090Z,4852
2017-08-28T11:09:49.941Z,4720
2017-08-28T11:10:58.792Z,4688
2017-08-28T11:12:07.648Z,4628
2017-08-28T11:13:17.272Z,4588
2017-08-28T11:14:26.123Z,4588
2017-08-28T11:15:35.311Z,4728
2017-08-28T11:16:44.161Z,4868
2017-08-28T11:17:53.021Z,5000
2017-08-28T11:19:01.873Z,4936
2017-08-28T11:20:11.059Z,4788
2017-08-28T11:21:19.909Z,4600
2017-08-28T11:22:28.758Z,4464
2017-08-28T11:23:37.607Z,4572
2017-08-28T11:24:46.509Z,4744
2017-08-28T11:25:55.359Z,5064
2017-08-28T11:27:04.212Z,5376
2017-08-28T11:28:13.066Z,5800
2017-08-28T11:29:21.916Z,6288
2017-08-28T11:30:31.402Z,6668
2017-08-28T11:31:40.254Z,7260
2017-08-28T11:32:49.108Z,8208
2017-08-28T11:33:57.959Z,8660
2017-08-28T11:35:06.813Z,8904
2017-08-28T11:36:15.771Z,8304
2017-08-28T11:37:24.623Z,7680
2017-08-28T11:38:33.475Z,7020
2017-08-28T11:39:42.327Z,6728
2017-08-28T11:40:51.179Z,7036
2017-08-28T11:42:00.184Z,6908
2017-08-28T11:43:09.037Z,6948
2017-08-28T11:44:17.889Z,6700
2017-08-28T11:45:26.743Z,6824
2017-08-28T11:46:35.609Z,7176
2017-08-28T11:47:44.516Z,8184
2017-08-28T11:48:53.369Z,8700
2017-08-28T11:50:02.221Z,9028
2017-08-28T11:51:11.073Z,8820
2017-08-28T11:52:19.923Z,8108
2017-08-28T11:53:29.075Z,7908
2017-08-28T11:54:37.927Z,7696
2017-08-28T11:55:46.779Z,7668
2017-08-28T11:56:55.634Z,6340
2017-08-28T11:58:04.819Z,6512
2017-08-28T11:59:13.774Z,16704
2017-08-28T12:00:22.628Z,7588
2017-08-28T12:01:31.484Z,5160
2017-08-28T12:02:40.338Z,5028
2017-08-28T12:03:49.190Z,5748
2017-08-28T12:04:58.330Z,6500
2017-08-28T12:06:07.222Z,18624
2017-08-28T12:07:16.076Z,42400
2017-08-28T12:08:24.932Z,22112
2017-08-28T12:09:33.782Z,22848
2017-08-28T12:10:43.356Z,36768
2017-08-28T12:11:52.212Z,11200
2017-08-28T12:13:01.065Z,8916
2017-08-28T12:14:09.924Z,9088
2017-08-28T12:15:18.780Z,9460
2017-08-28T12:16:27.634Z,9160
2017-08-28T12:17:36.491Z,8700
2017-08-28T12:18:45.346Z,13448
2017-08-28T12:19:54.201Z,7492
2017-08-28T12:21:03.056Z,10888
2017-08-28T12:22:12.161Z,17920
2017-08-28T12:23:21.013Z,21152
2017-08-28T12:24:29.868Z,21472
2017-08-28T12:25:38.725Z,30752
2017-08-28T12:26:47.581Z,24480
2017-08-28T12:27:56.486Z,11016
2017-08-28T12:29:05.342Z,11312
2017-08-28T12:30:14.198Z,19200
2017-08-28T12:31:23.056Z,29888
2017-08-28T12:32:31.913Z,26016
2017-08-28T12:33:41.154Z,11460
2017-08-28T12:34:50.008Z,11524
2017-08-28T12:35:58.860Z,6236
2017-08-28T12:37:07.717Z,6128
2017-08-28T12:38:16.572Z,6064
2017-08-28T12:39:25.527Z,5860
2017-08-28T12:40:34.380Z,5616
2017-08-28T12:41:43.232Z,6040
2017-08-28T12:42:52.089Z,6508
2017-08-28T12:44:00.946Z,7140
2017-08-28T12:45:09.849Z,7376
2017-08-28T12:46:18.706Z,8156
2017-08-28T12:47:27.562Z,8944
2017-08-28T12:48:36.417Z,9076
2017-08-28T12:49:45.272Z,8600
2017-08-28T12:50:54.177Z,8104
2017-08-28T12:52:03.032Z,8220
2017-08-28T12:53:11.882Z,9272
2017-08-28T12:54:20.735Z,9684
2017-08-28T12:55:29.593Z,10316
2017-08-28T12:56:38.498Z,11616
2017-08-28T12:57:47.356Z,16992
2017-08-28T12:58:56.209Z,32512
2017-08-28T13:00:05.068Z,17984
2017-08-28T13:01:13.922Z,16288
2017-08-28T13:02:23.077Z,12188
2017-08-28T13:03:31.932Z,9872
2017-08-28T13:04:40.787Z,11984
2017-08-28T13:05:49.644Z,11012
2017-08-28T13:06:58.520Z,10256
2017-08-28T13:08:07.856Z,10684
2017-08-28T13:09:16.711Z,9712
2017-08-28T13:10:25.565Z,9132
2017-08-28T13:11:34.419Z,8672
2017-08-28T13:12:43.276Z,7952
2017-08-28T13:13:52.179Z,7936
2017-08-28T13:15:01.034Z,8144
2017-08-28T13:16:09.895Z,8396
2017-08-28T13:17:18.766Z,8528
2017-08-28T13:18:27.859Z,8672
2017-08-28T13:19:37.102Z,9060
2017-08-28T13:20:45.966Z,13232
2017-08-28T13:21:54.821Z,19680
2017-08-28T13:23:03.694Z,18560
2017-08-28T13:24:12.552Z,13500
2017-08-28T13:25:21.560Z,11316
2017-08-28T13:26:30.435Z,11752
2017-08-28T13:27:39.344Z,10612
2017-08-28T13:28:48.210Z,13424
2017-08-28T13:29:57.084Z,9008
2017-08-28T13:31:05.991Z,9316
2017-08-28T13:32:14.850Z,8840
2017-08-28T13:33:24.038Z,8368
2017-08-28T13:34:32.913Z,8732
2017-08-28T13:35:41.765Z,10676
2017-08-28T13:36:50.972Z,17280
2017-08-28T13:37:59.928Z,10120
2017-08-28T13:39:08.799Z,10720
2017-08-28T13:40:17.988Z,14168
2017-08-28T13:41:26.872Z,15452
2017-08-28T13:42:35.910Z,10796
2017-08-28T13:43:45.136Z,13372
2017-08-28T13:44:53.996Z,21504
2017-08-28T13:46:02.851Z,27296
2017-08-28T13:47:11.715Z,29920
2017-08-28T13:48:20.674Z,14180
2017-08-28T13:49:29.532Z,11056
2017-08-28T13:50:38.392Z,9912
2017-08-28T13:51:47.310Z,9820
2017-08-28T13:52:56.176Z,9200
2017-08-28T13:54:05.035Z,10332
2017-08-28T13:55:13.905Z,14816
2017-08-28T13:56:22.770Z,11632
2017-08-28T13:57:31.636Z,16768
2017-08-28T13:58:40.500Z,20000
2017-08-28T13:59:49.617Z,35552
2017-08-28T14:00:58.486Z,45760
2017-08-28T14:02:07.354Z,51328
2017-08-28T14:03:16.223Z,52480
2017-08-28T14:04:25.084Z,42912
2017-08-28T14:05:34.244Z,42432
2017-08-28T14:06:43.105Z,14640
2017-08-28T14:07:51.971Z,18784
2017-08-28T14:09:01.334Z,49984
2017-08-28T14:10:11.055Z,51360
2017-08-28T14:11:20.335Z,50048
2017-08-28T14:12:30.185Z,44960
2017-08-28T14:13:39.130Z,51744
2017-08-28T14:14:48.427Z,53024
2017-08-28T14:15:57.498Z,49568
2017-08-28T14:17:06.769Z,52512
2017-08-28T14:18:16.610Z,51520
2017-08-28T14:19:25.817Z,9992
2017-08-28T14:20:34.687Z,44320
2017-08-28T14:21:43.576Z,43936
2017-08-28T14:22:52.700Z,28224
2017-08-28T14:24:01.879Z,7344
2017-08-28T14:25:10.747Z,6384
2017-08-28T14:26:19.615Z,5716
2017-08-28T14:27:28.479Z,5252
2017-08-28T14:28:37.672Z,5296
2017-08-28T14:29:46.538Z,5832
2017-08-28T14:30:55.397Z,6720
2017-08-28T14:32:04.257Z,6996
2017-08-28T14:33:13.118Z,6588
2017-08-28T14:34:22.365Z,6560
2017-08-28T14:35:31.225Z,7084
2017-08-28T14:36:40.083Z,7472
2017-08-28T14:37:48.941Z,7480
2017-08-28T14:38:57.802Z,7972
2017-08-28T14:40:06.713Z,7868
2017-08-28T14:41:15.572Z,8356
2017-08-28T14:42:24.429Z,6052
2017-08-28T14:43:33.621Z,3812
2017-08-28T14:44:42.816Z,3360
2017-08-28T14:45:51.787Z,3404
2017-08-28T14:47:00.678Z,3704
2017-08-28T14:48:09.527Z,4532
2017-08-28T14:49:18.384Z,6576
2017-08-28T14:50:27.416Z,8956
2017-08-28T14:51:36.689Z,8596
2017-08-28T14:52:45.658Z,9348
2017-08-28T14:53:54.608Z,9460
2017-08-28T14:55:03.525Z,9636
2017-08-28T14:56:12.538Z,12228
2017-08-28T14:57:21.487Z,35776
2017-08-28T14:58:30.446Z,41600
2017-08-28T14:59:39.610Z,42304
2017-08-28T15:00:48.624Z,45472
2017-08-28T15:01:57.720Z,47424
2017-08-28T15:03:06.633Z,46656
2017-08-28T15:04:15.963Z,46976
2017-08-28T15:05:24.990Z,48224
2017-08-28T15:06:33.991Z,45120
2017-08-28T15:07:42.881Z,42944
2017-08-28T15:08:51.941Z,42336
2017-08-28T15:10:01.154Z,41568
2017-08-28T15:11:10.257Z,42400
2017-08-28T15:12:19.471Z,40096
2017-08-28T15:13:28.730Z,37632
2017-08-28T15:14:37.604Z,35552
2017-08-28T15:15:46.466Z,37824
2017-08-28T15:16:55.486Z,32992
2017-08-28T15:18:04.346Z,33984
2017-08-28T15:19:13.210Z,31296
2017-08-28T15:20:22.075Z,33216
2017-08-28T15:21:30.938Z,30208
2017-08-28T15:22:39.855Z,31680
2017-08-28T15:23:48.717Z,9672
2017-08-28T15:24:57.582Z,7360
2017-08-28T15:26:06.443Z,27104
2017-08-28T15:27:15.407Z,25472
2017-08-28T15:28:24.288Z,27200
2017-08-28T15:29:33.153Z,26784
2017-08-28T15:30:42.014Z,25792
2017-08-28T15:31:50.875Z,27200
2017-08-28T15:33:00.038Z,28928
2017-08-28T15:34:08.900Z,30016
2017-08-28T15:35:17.763Z,30464
2017-08-28T15:36:26.627Z,29920
2017-08-28T15:37:35.490Z,28096
2017-08-28T15:38:44.352Z,21696
2017-08-28T15:39:53.214Z,8596
2017-08-28T15:41:02.078Z,7440